Time;durP1;ratioP1;P1;durP2;ratioP2;P2;SDS_P1;SDS_P2;PMS_P1;PMS_P2;Temp;Humidity;BMP_temperature;BMP_pressure;BME280_temperature;BME280_humidity;BME280_pressure;Samples;Min_cycle;Max_cycle;Signal;HPM_P1;HPM_P2
2022/01/05 00:00:56;;;;;;;0.40;0.40;;;4.40;99.90;;;;;;5053253;28;20440;-70
2022/01/05 00:03:43;;;;;;;0.40;0.40;;;4.40;99.90;;;;;;5053190;28;20443;-71
2022/01/05 00:06:30;;;;;;;0.40;0.40;;;4.50;99.90;;;;;;5053232;28;20964;-71
2022/01/05 00:09:17;;;;;;;0.50;0.50;;;4.50;99.90;;;;;;5053238;28;20806;-71
2022/01/05 00:12:05;;;;;;;0.40;0.40;;;4.50;99.90;;;;;;5053149;28;20444;-71
2022/01/05 00:14:52;;;;;;;0.40;0.40;;;4.50;99.90;;;;;;5052855;28;20879;-71
2022/01/05 00:17:40;;;;;;;0.40;0.40;;;4.50;99.90;;;;;;5053095;28;20424;-71
2022/01/05 00:20:27;;;;;;;0.40;0.40;;;4.60;99.90;;;;;;5052260;28;20888;-71
2022/01/05 00:23:14;;;;;;;0.40;0.40;;;4.50;99.90;;;;;;5052952;28;20424;-71
2022/01/05 00:26:03;;;;;;;0.40;0.40;;;4.60;99.90;;;;;;5052589;28;20951;-71
2022/01/05 00:28:50;;;;;;;0.50;0.50;;;4.70;99.90;;;;;;5052788;28;20428;-70
2022/01/05 00:31:37;;;;;;;0.60;0.60;;;4.70;99.90;;;;;;5052652;28;20444;-70
2022/01/05 00:34:26;;;;;;;0.40;0.40;;;4.80;99.90;;;;;;5051730;28;20475;-71
2022/01/05 00:37:12;;;;;;;0.40;0.40;;;4.80;99.90;;;;;;5052651;28;20994;-70
2022/01/05 00:39:59;;;;;;;0.40;0.40;;;4.90;99.90;;;;;;5052873;28;20416;-69
2022/01/05 00:42:46;;;;;;;0.50;0.40;;;4.90;99.90;;;;;;5052135;28;20860;-70
2022/01/05 00:45:33;;;;;;;0.40;0.40;;;5.00;99.90;;;;;;5052145;28;20797;-70
2022/01/05 00:48:20;;;;;;;0.40;0.40;;;5.00;99.90;;;;;;5052190;28;20432;-70
2022/01/05 00:51:09;;;;;;;0.40;0.40;;;5.10;99.90;;;;;;5052217;28;20450;-70
2022/01/05 00:53:56;;;;;;;0.40;0.40;;;5.00;99.90;;;;;;5052197;28;20459;-70
2022/01/05 00:56:43;;;;;;;0.40;0.40;;;4.90;99.90;;;;;;5052089;28;20432;-70
2022/01/05 00:59:30;;;;;;;0.50;0.50;;;4.90;99.90;;;;;;5051721;28;20952;-70
2022/01/05 01:02:17;;;;;;;0.40;0.40;;;4.90;99.90;;;;;;5034382;28;20428;-70
2022/01/05 01:05:05;;;;;;;0.40;0.40;;;4.90;99.90;;;;;;5033005;28;20413;-69
2022/01/05 01:07:53;;;;;;;0.40;0.40;;;4.90;99.90;;;;;;5032708;28;20455;-70
2022/01/05 01:10:40;;;;;;;0.40;0.40;;;4.80;99.90;;;;;;5032522;28;20495;-70
2022/01/05 01:13:27;;;;;;;0.40;0.40;;;4.80;99.90;;;;;;5033187;28;20436;-70
2022/01/05 01:16:13;;;;;;;0.50;0.50;;;4.90;99.90;;;;;;5033157;28;20432;-70
2022/01/05 01:19:00;;;;;;;0.40;0.40;;;4.90;99.90;;;;;;5037025;28;20420;-70
2022/01/05 01:21:47;;;;;;;0.40;0.40;;;4.90;99.90;;;;;;5044052;28;20460;-70
2022/01/05 01:24:36;;;;;;;0.40;0.40;;;5.00;99.90;;;;;;5043518;28;20417;-71
2022/01/05 01:27:22;;;;;;;0.40;0.40;;;5.10;99.90;;;;;;5044650;28;20431;-70
2022/01/05 01:30:11;;;;;;;0.40;0.40;;;5.10;99.90;;;;;;5043553;28;20417;-70
2022/01/05 01:32:58;;;;;;;0.40;0.40;;;5.10;99.90;;;;;;5045583;28;20452;-71
2022/01/05 01:35:45;;;;;;;0.40;0.40;;;5.00;99.90;;;;;;5045614;28;20491;-70
2022/01/05 01:38:32;;;;;;;0.40;0.40;;;5.10;99.90;;;;;;5046315;28;20455;-70
2022/01/05 01:41:20;;;;;;;0.43;0.43;;;5.00;99.90;;;;;;5047469;28;20881;-71
2022/01/05 01:44:08;;;;;;;0.40;0.40;;;4.90;99.90;;;;;;5048610;28;20432;-70
2022/01/05 01:46:54;;;;;;;0.40;0.40;;;5.00;99.90;;;;;;5053796;28;20424;-70
2022/01/05 01:49:42;;;;;;;0.40;0.40;;;5.00;99.90;;;;;;5036405;28;20452;-70
2022/01/05 01:52:28;;;;;;;0.40;0.40;;;4.90;99.90;;;;;;5036703;28;20507;-70
2022/01/05 01:55:15;;;;;;;0.40;0.40;;;4.90;99.90;;;;;;5036431;28;20988;-70
2022/01/05 01:58:06;;;;;;;0.40;0.40;;;4.90;99.90;;;;;;5036056;28;20427;-70
2022/01/05 02:00:53;;;;;;;0.40;0.40;;;4.90;99.90;;;;;;5042454;28;20448;-70
2022/01/05 02:03:40;;;;;;;0.40;0.40;;;4.80;99.90;;;;;;5055550;28;20936;-70
2022/01/05 02:06:27;;;;;;;0.50;0.50;;;4.90;99.90;;;;;;5053974;28;20499;-70
2022/01/05 02:09:14;;;;;;;0.40;0.40;;;5.00;99.90;;;;;;5036329;28;20475;-70
2022/01/05 02:12:01;;;;;;;0.40;0.40;;;4.90;99.90;;;;;;5038412;28;20541;-70
2022/01/05 02:14:49;;;;;;;0.40;0.40;;;4.80;99.90;;;;;;5051022;28;20553;-70
2022/01/05 02:17:46;;;;;;;0.50;0.50;;;4.80;99.90;;;;;;5065458;28;20432;-70
2022/01/05 02:20:34;;;;;;;0.50;0.50;;;4.90;99.90;;;;;;5062861;28;20462;-70
2022/01/05 02:23:22;;;;;;;0.40;0.40;;;4.80;99.90;;;;;;5064954;28;20450;-70
2022/01/05 02:26:11;;;;;;;0.40;0.40;;;4.80;99.90;;;;;;5063440;28;20424;-70
2022/01/05 02:28:58;;;;;;;0.40;0.40;;;5.00;99.90;;;;;;5061964;28;20432;-71
2022/01/05 02:31:45;;;;;;;0.40;0.40;;;4.90;99.90;;;;;;5057669;28;20448;-70
2022/01/05 02:34:32;;;;;;;0.40;0.40;;;4.90;99.90;;;;;;5058565;28;20509;-71
2022/01/05 02:37:19;;;;;;;0.53;0.53;;;4.90;99.90;;;;;;5057254;28;20490;-71
2022/01/05 02:40:10;;;;;;;1.33;1.33;;;4.90;99.90;;;;;;5054723;28;20421;-70
2022/01/05 02:42:58;;;;;;;0.40;0.40;;;4.80;99.90;;;;;;5054249;28;20474;-72
2022/01/05 02:45:45;;;;;;;0.40;0.40;;;4.80;99.90;;;;;;5054943;28;20420;-71
2022/01/05 02:48:33;;;;;;;0.40;0.40;;;4.90;99.90;;;;;;5054739;28;20420;-70
2022/01/05 02:51:21;;;;;;;0.40;0.40;;;4.90;99.90;;;;;;5053633;28;20448;-71
2022/01/05 02:54:08;;;;;;;0.40;0.40;;;5.00;99.90;;;;;;5054302;28;20436;-71
2022/01/05 02:56:56;;;;;;;0.40;0.40;;;5.10;99.90;;;;;;5053854;28;20486;-71
2022/01/05 02:59:43;;;;;;;0.40;0.40;;;4.90;99.90;;;;;;5053783;28;20794;-70
2022/01/05 03:02:30;;;;;;;0.40;0.40;;;4.80;99.90;;;;;;5035633;28;20425;-71
2022/01/05 03:05:17;;;;;;;0.40;0.40;;;4.70;99.90;;;;;;5034721;28;20510;-71
2022/01/05 03:08:04;;;;;;;0.40;0.40;;;4.90;99.90;;;;;;5034613;28;20424;-70
2022/01/05 03:10:51;;;;;;;0.40;0.40;;;4.80;99.90;;;;;;5034050;28;20440;-71
2022/01/05 03:13:39;;;;;;;0.40;0.40;;;4.90;99.90;;;;;;5034420;28;20929;-71
2022/01/05 03:16:26;;;;;;;0.40;0.40;;;4.90;99.90;;;;;;5033854;28;20469;-71
2022/01/05 03:19:14;;;;;;;3.30;0.60;;;5.00;99.90;;;;;;5033892;28;20424;-70
2022/01/05 03:22:01;;;;;;;0.40;0.40;;;5.00;99.90;;;;;;5034393;28;20928;-70
2022/01/05 03:24:48;;;;;;;0.40;0.40;;;5.00;99.90;;;;;;5033274;28;20421;-71
2022/01/05 03:27:35;;;;;;;0.40;0.40;;;4.90;99.90;;;;;;5034464;28;20479;-70
2022/01/05 03:30:25;;;;;;;0.47;0.47;;;4.90;99.90;;;;;;5034244;28;20449;-71
2022/01/05 03:33:13;;;;;;;0.40;0.40;;;4.90;99.90;;;;;;5034632;28;20448;-70
2022/01/05 03:36:00;;;;;;;0.40;0.40;;;4.90;99.90;;;;;;5034048;28;20465;-70
2022/01/05 03:38:47;;;;;;;0.50;0.50;;;4.90;99.90;;;;;;5034064;28;20449;-70
2022/01/05 03:41:34;;;;;;;0.40;0.40;;;4.90;99.90;;;;;;5034251;28;20831;-70
2022/01/05 03:44:21;;;;;;;0.40;0.40;;;5.00;99.90;;;;;;5034087;28;20471;-70
2022/01/05 03:47:09;;;;;;;0.40;0.40;;;5.20;99.90;;;;;;5034377;28;20425;-70
2022/01/05 03:49:56;;;;;;;0.40;0.40;;;5.00;99.90;;;;;;5033829;28;20421;-70
2022/01/05 03:52:43;;;;;;;0.40;0.40;;;5.10;99.90;;;;;;5033803;28;20421;-70
2022/01/05 03:55:30;;;;;;;0.40;0.40;;;5.10;99.90;;;;;;5034282;28;20977;-70
2022/01/05 03:58:17;;;;;;;0.40;0.40;;;5.00;99.90;;;;;;5033499;28;20948;-70
2022/01/05 04:01:04;;;;;;;0.40;0.40;;;4.90;99.90;;;;;;5033479;28;20524;-70
2022/01/05 04:03:52;;;;;;;0.40;0.40;;;4.80;99.90;;;;;;5035594;28;20560;-70
2022/01/05 04:06:39;;;;;;;0.40;0.40;;;4.80;99.90;;;;;;5033456;28;20475;-70
2022/01/05 04:09:26;;;;;;;0.40;0.40;;;4.80;99.90;;;;;;5032637;28;20417;-70
2022/01/05 04:12:13;;;;;;;0.50;0.50;;;4.80;99.90;;;;;;5033637;28;20445;-70
2022/01/05 04:15:00;;;;;;;0.40;0.40;;;5.00;99.90;;;;;;5033690;28;20859;-70
2022/01/05 04:17:47;;;;;;;0.40;0.40;;;4.80;99.90;;;;;;5033411;28;20421;-70
2022/01/05 04:20:36;;;;;;;0.50;0.50;;;4.70;99.90;;;;;;5032353;28;20468;-70
2022/01/05 04:23:23;;;;;;;0.50;0.50;;;4.60;99.90;;;;;;5033296;28;20487;-69
2022/01/05 04:26:10;;;;;;;4.57;0.97;;;4.50;99.90;;;;;;5033864;28;20418;-70
2022/01/05 04:28:56;;;;;;;0.40;0.40;;;4.50;99.90;;;;;;5033259;28;20506;-70
2022/01/05 04:31:45;;;;;;;0.40;0.40;;;4.30;99.90;;;;;;5033267;28;20445;-69
2022/01/05 04:34:32;;;;;;;0.40;0.40;;;4.30;99.90;;;;;;5033645;28;20479;-70
2022/01/05 04:37:20;;;;;;;0.40;0.40;;;4.20;99.90;;;;;;5033520;28;20674;-70
2022/01/05 04:40:08;;;;;;;0.43;0.43;;;4.30;99.90;;;;;;5033396;28;20425;-70
2022/01/05 04:42:55;;;;;;;0.40;0.40;;;4.40;99.90;;;;;;5033758;28;20475;-70
2022/01/05 04:45:42;;;;;;;0.40;0.40;;;4.30;99.90;;;;;;5033327;28;21044;-70
2022/01/05 04:48:29;;;;;;;0.40;0.40;;;4.30;99.90;;;;;;5033720;28;20439;-69
2022/01/05 04:51:16;;;;;;;0.40;0.40;;;4.30;99.90;;;;;;5033798;28;20441;-69
2022/01/05 04:54:04;;;;;;;0.43;0.43;;;4.30;99.90;;;;;;5034078;28;20478;-69
2022/01/05 04:56:51;;;;;;;0.40;0.40;;;4.40;99.90;;;;;;5033244;28;20472;-70
2022/01/05 04:59:38;;;;;;;0.40;0.40;;;4.40;99.90;;;;;;5033270;28;20432;-69
2022/01/05 05:02:25;;;;;;;0.40;0.40;;;4.50;99.90;;;;;;5052025;28;20984;-69
2022/01/05 05:05:12;;;;;;;0.40;0.40;;;4.40;99.90;;;;;;5052574;28;20470;-70
2022/01/05 05:07:59;;;;;;;0.40;0.40;;;4.30;99.90;;;;;;5052338;28;20431;-69
2022/01/05 05:10:47;;;;;;;0.40;0.40;;;4.20;99.90;;;;;;5051855;28;20440;-70
2022/01/05 05:13:34;;;;;;;0.40;0.40;;;4.10;99.90;;;;;;5053005;28;20478;-69
2022/01/05 05:16:21;;;;;;;0.50;0.50;;;4.10;99.90;;;;;;5052651;28;20534;-69
2022/01/05 05:19:08;;;;;;;0.40;0.40;;;4.10;99.90;;;;;;5052008;28;20432;-69
2022/01/05 05:21:55;;;;;;;0.40;0.40;;;4.00;99.90;;;;;;5052266;28;20484;-69
2022/01/05 05:24:42;;;;;;;0.40;0.40;;;4.00;99.90;;;;;;5052394;28;20463;-69
2022/01/05 05:27:30;;;;;;;0.50;0.50;;;4.00;99.90;;;;;;5052720;28;20428;-70
2022/01/05 05:30:17;;;;;;;0.40;0.40;;;4.10;99.90;;;;;;5052472;28;20447;-70
2022/01/05 05:33:05;;;;;;;0.40;0.40;;;3.90;99.90;;;;;;5052753;28;20437;-70
2022/01/05 05:35:52;;;;;;;0.40;0.40;;;3.90;99.90;;;;;;5052411;28;20496;-69
2022/01/05 05:38:39;;;;;;;0.50;0.50;;;3.90;99.90;;;;;;5052330;28;20963;-72
2022/01/05 05:41:26;;;;;;;0.40;0.40;;;3.80;99.90;;;;;;5052365;28;20444;-70
2022/01/05 05:44:14;;;;;;;1.10;0.90;;;3.90;99.90;;;;;;5052071;28;20860;-70
2022/01/05 05:47:01;;;;;;;1.03;0.50;;;3.80;99.90;;;;;;5052701;28;20448;-70
2022/01/05 05:49:48;;;;;;;0.40;0.40;;;3.70;99.90;;;;;;5051668;28;20428;-69
2022/01/05 05:52:35;;;;;;;0.40;0.40;;;3.70;99.90;;;;;;5052278;28;20948;-70
2022/01/05 05:55:23;;;;;;;0.40;0.40;;;3.90;99.90;;;;;;5052281;28;20419;-70
2022/01/05 05:58:09;;;;;;;1.23;0.50;;;3.70;99.90;;;;;;5053248;28;20440;-72
2022/01/05 06:00:58;;;;;;;0.50;0.50;;;3.70;99.90;;;;;;5044729;28;20510;-70
2022/01/05 06:03:45;;;;;;;0.40;0.40;;;3.70;99.90;;;;;;5032958;28;20429;-71
2022/01/05 06:06:32;;;;;;;0.40;0.40;;;3.80;99.90;;;;;;5033281;28;20491;-70
2022/01/05 06:09:18;;;;;;;0.40;0.40;;;3.80;99.90;;;;;;5032608;28;20960;-70
2022/01/05 06:12:06;;;;;;;0.40;0.40;;;3.90;99.90;;;;;;5032646;28;20449;-71
2022/01/05 06:14:53;;;;;;;0.40;0.40;;;3.80;99.90;;;;;;5033134;28;20425;-70
2022/01/05 06:17:42;;;;;;;0.40;0.40;;;3.80;99.90;;;;;;5032684;28;20862;-70
2022/01/05 06:20:28;;;;;;;0.40;0.40;;;3.70;99.90;;;;;;5032525;28;20863;-70
2022/01/05 06:23:15;;;;;;;0.40;0.40;;;3.70;99.90;;;;;;5032892;28;20503;-70
2022/01/05 06:26:02;;;;;;;0.53;0.53;;;3.70;99.90;;;;;;5033584;28;20847;-71
2022/01/05 06:28:50;;;;;;;0.50;0.50;;;3.60;99.90;;;;;;5033346;28;20494;-69
2022/01/05 06:31:37;;;;;;;0.40;0.40;;;3.60;99.90;;;;;;5034578;28;20468;-69
2022/01/05 06:34:25;;;;;;;0.40;0.40;;;3.60;99.90;;;;;;5036154;28;20417;-70
2022/01/05 06:37:15;;;;;;;0.50;0.50;;;3.50;99.90;;;;;;5036404;28;20464;-70
2022/01/05 06:40:02;;;;;;;2.10;0.60;;;3.60;99.90;;;;;;5036880;28;20929;-70
2022/01/05 06:42:49;;;;;;;0.40;0.40;;;3.50;99.90;;;;;;5042868;28;20494;-70
2022/01/05 06:45:36;;;;;;;0.40;0.40;;;3.50;99.90;;;;;;5056948;28;20435;-70
2022/01/05 06:48:23;;;;;;;0.43;0.43;;;3.50;99.90;;;;;;5055177;28;20421;-70
2022/01/05 06:51:11;;;;;;;0.40;0.40;;;3.50;99.90;;;;;;5036918;28;20498;-70
2022/01/05 06:53:58;;;;;;;0.40;0.40;;;3.50;99.90;;;;;;5041465;28;20427;-71
2022/01/05 06:56:46;;;;;;;0.40;0.40;;;3.40;99.90;;;;;;5044324;28;20466;-72
2022/01/05 06:59:33;;;;;;;0.40;0.40;;;3.40;99.90;;;;;;5045334;28;20509;-71
2022/01/05 07:02:20;;;;;;;0.50;0.50;;;3.40;99.90;;;;;;5033996;28;20421;-70
2022/01/05 07:05:08;;;;;;;0.40;0.40;;;3.40;99.90;;;;;;5033910;28;20793;-69
2022/01/05 07:07:56;;;;;;;0.40;0.40;;;3.40;99.90;;;;;;5034279;28;20495;-69
2022/01/05 07:10:43;;;;;;;0.60;0.60;;;3.40;99.90;;;;;;5033866;28;20445;-69
2022/01/05 07:13:30;;;;;;;0.40;0.40;;;3.40;99.90;;;;;;5034356;28;20421;-70
2022/01/05 07:16:17;;;;;;;0.40;0.40;;;3.60;99.90;;;;;;5034614;28;20468;-70
2022/01/05 07:19:04;;;;;;;0.50;0.50;;;3.40;99.90;;;;;;5037897;28;20430;-70
2022/01/05 07:21:51;;;;;;;0.40;0.40;;;3.50;99.90;;;;;;5039881;28;20499;-70
2022/01/05 07:24:39;;;;;;;0.43;0.43;;;3.40;99.90;;;;;;5042930;28;20453;-70
2022/01/05 07:27:27;;;;;;;0.40;0.40;;;3.50;99.90;;;;;;5040013;28;20426;-70
2022/01/05 07:30:14;;;;;;;0.40;0.40;;;3.50;99.90;;;;;;5038600;28;20452;-70
2022/01/05 07:33:01;;;;;;;0.40;0.40;;;3.40;99.90;;;;;;5039697;28;20441;-70
2022/01/05 07:35:47;;;;;;;0.50;0.50;;;3.40;99.90;;;;;;5042569;28;20452;-70
2022/01/05 07:38:34;;;;;;;0.40;0.40;;;3.40;99.90;;;;;;5036618;28;20868;-70
2022/01/05 07:41:23;;;;;;;6.77;0.90;;;3.40;99.90;;;;;;5036151;28;20449;-70
2022/01/05 07:44:09;;;;;;;0.40;0.40;;;3.40;99.90;;;;;;5034974;28;20422;-69
2022/01/05 07:46:56;;;;;;;0.40;0.40;;;3.40;99.90;;;;;;5045754;28;20424;-72
2022/01/05 07:49:43;;;;;;;0.53;0.50;;;3.50;99.90;;;;;;5052725;28;20863;-71
2022/01/05 07:52:31;;;;;;;0.50;0.50;;;3.50;99.90;;;;;;5042903;28;20455;-71
2022/01/05 07:55:18;;;;;;;0.40;0.40;;;3.60;99.90;;;;;;5033967;28;20429;-70
2022/01/05 07:58:06;;;;;;;0.40;0.40;;;3.50;99.90;;;;;;5034902;28;20469;-71
2022/01/05 08:00:53;;;;;;;0.40;0.40;;;3.40;99.90;;;;;;5040208;28;20448;-71
2022/01/05 08:03:40;;;;;;;3.90;1.27;;;3.40;99.90;;;;;;5053892;28;20500;-71
2022/01/05 08:06:27;;;;;;;0.67;0.67;;;3.20;99.90;;;;;;5053068;28;20427;-71
2022/01/05 08:09:14;;;;;;;0.50;0.50;;;3.10;99.90;;;;;;5053875;28;20519;-70
2022/01/05 08:12:01;;;;;;;0.40;0.40;;;3.10;99.90;;;;;;5052281;28;20502;-71
2022/01/05 08:14:49;;;;;;;0.40;0.40;;;3.10;99.90;;;;;;5040408;28;20519;-71
2022/01/05 08:17:38;;;;;;;0.40;0.40;;;3.20;99.90;;;;;;5033189;28;20475;-72
2022/01/05 08:20:25;;;;;;;0.50;0.50;;;3.00;99.90;;;;;;5034098;28;20472;-71
2022/01/05 08:23:15;;;;;;;0.40;0.40;;;3.10;99.90;;;;;;5032301;28;20440;-72
2022/01/05 08:26:04;;;;;;;0.50;0.50;;;3.00;99.90;;;;;;5032709;28;20429;-72
2022/01/05 08:28:51;;;;;;;0.70;0.60;;;3.10;99.90;;;;;;5031929;28;20926;-72
2022/01/05 08:31:39;;;;;;;0.50;0.50;;;3.00;99.90;;;;;;5041875;28;20449;-73
2022/01/05 08:34:27;;;;;;;0.40;0.40;;;2.90;99.90;;;;;;5040957;28;20794;-72
2022/01/05 08:37:15;;;;;;;0.50;0.50;;;3.10;99.90;;;;;;5038222;28;20502;-72
2022/01/05 08:40:03;;;;;;;0.50;0.50;;;3.00;99.90;;;;;;5049514;28;20430;-71
2022/01/05 08:42:50;;;;;;;0.73;0.60;;;3.00;99.90;;;;;;5039494;28;21093;-71
2022/01/05 08:45:38;;;;;;;3.87;0.93;;;3.00;99.90;;;;;;5054770;28;20892;-71
2022/01/05 08:48:26;;;;;;;0.80;0.80;;;3.10;99.90;;;;;;5049071;28;20440;-72
2022/01/05 08:51:13;;;;;;;0.47;0.47;;;3.10;99.90;;;;;;5054344;28;20436;-71
2022/01/05 08:54:00;;;;;;;0.40;0.40;;;3.10;99.90;;;;;;5047718;28;20420;-72
2022/01/05 08:56:48;;;;;;;0.50;0.50;;;3.10;99.90;;;;;;5050730;28;20432;-71
2022/01/05 08:59:36;;;;;;;0.50;0.50;;;3.20;99.90;;;;;;5047265;28;20940;-71
2022/01/05 09:02:23;;;;;;;0.57;0.57;;;3.20;99.90;;;;;;5047514;28;20463;-71
2022/01/05 09:05:12;;;;;;;0.40;0.40;;;3.20;99.90;;;;;;5044344;28;20435;-72
2022/01/05 09:07:59;;;;;;;0.57;0.57;;;3.30;99.90;;;;;;5046160;28;20472;-70
2022/01/05 09:10:46;;;;;;;0.83;0.63;;;3.30;99.90;;;;;;5041560;28;20445;-71
2022/01/05 09:13:33;;;;;;;0.60;0.60;;;3.40;99.90;;;;;;5040616;28;20440;-71
2022/01/05 09:16:20;;;;;;;0.50;0.50;;;3.50;99.90;;;;;;5060020;28;20498;-72
2022/01/05 09:19:07;;;;;;;1.27;0.87;;;3.50;99.90;;;;;;5050565;28;20428;-71
2022/01/05 09:21:55;;;;;;;0.73;0.73;;;3.50;99.90;;;;;;5052114;28;20491;-72
2022/01/05 09:24:42;;;;;;;0.70;0.60;;;3.60;99.90;;;;;;5060153;28;20440;-74
2022/01/05 09:27:29;;;;;;;0.50;0.50;;;3.70;99.90;;;;;;5055418;28;20471;-71
2022/01/05 09:30:19;;;;;;;0.50;0.50;;;3.70;99.90;;;;;;5054658;28;20444;-73
2022/01/05 09:33:07;;;;;;;0.70;0.70;;;3.70;99.90;;;;;;5059451;28;20468;-73
2022/01/05 09:36:03;;;;;;;0.70;0.50;;;3.70;99.90;;;;;;5062303;28;20504;-73
2022/01/05 09:42:00;;;;;;;0.97;0.97;;;3.80;99.90;;;;;;5056544;28;20463;-71
2022/01/05 09:44:49;;;;;;;3.13;0.97;;;3.80;99.90;;;;;;5041765;28;20456;-72
2022/01/05 09:47:52;;;;;;;0.40;0.40;;;3.90;99.90;;;;;;5051526;28;20559;-71
2022/01/05 09:50:46;;;;;;;0.40;0.40;;;3.90;99.90;;;;;;5038189;28;20505;-71
2022/01/05 09:53:35;;;;;;;0.60;0.60;;;4.00;99.90;;;;;;5052084;28;20432;-72
2022/01/05 09:56:23;;;;;;;0.40;0.40;;;4.00;99.90;;;;;;5047052;28;20429;-71
2022/01/05 09:59:10;;;;;;;0.40;0.40;;;4.00;99.90;;;;;;5044470;28;20431;-71
2022/01/05 10:01:57;;;;;;;0.60;0.60;;;4.10;99.90;;;;;;5051506;28;20448;-72
2022/01/05 10:04:45;;;;;;;2.50;1.03;;;4.20;99.90;;;;;;5051548;28;20490;-72
2022/01/05 10:07:35;;;;;;;0.90;0.90;;;4.20;99.90;;;;;;5041407;28;20476;-71
2022/01/05 10:10:22;;;;;;;0.40;0.40;;;4.30;99.90;;;;;;5038890;28;20959;-71
2022/01/05 10:13:10;;;;;;;0.50;0.50;;;4.40;99.90;;;;;;5055123;28;20482;-73
2022/01/05 10:15:57;;;;;;;0.40;0.40;;;4.50;99.90;;;;;;5054375;28;20425;-72
2022/01/05 10:18:45;;;;;;;1.00;0.70;;;4.70;99.90;;;;;;5054390;28;20420;-71
2022/01/05 10:21:37;;;;;;;0.40;0.40;;;5.00;99.90;;;;;;5055991;28;20471;-72
2022/01/05 10:24:40;;;;;;;0.60;0.60;;;5.20;99.90;;;;;;5054336;28;20429;-73
2022/01/05 10:27:29;;;;;;;0.60;0.60;;;5.30;99.90;;;;;;5055327;28;20459;-72
2022/01/05 10:30:17;;;;;;;0.40;0.40;;;5.30;99.90;;;;;;5053711;28;20452;-71
2022/01/05 10:33:04;;;;;;;2.00;0.80;;;5.40;99.90;;;;;;5056158;28;20805;-72
2022/01/05 10:35:56;;;;;;;3.43;0.87;;;5.50;99.90;;;;;;5053825;28;20447;-73
2022/01/05 10:38:57;;;;;;;0.60;0.60;;;5.30;99.90;;;;;;5054821;28;20797;-72
2022/01/05 10:41:46;;;;;;;2.53;2.40;;;5.40;99.90;;;;;;5055383;28;20443;-73
2022/01/05 10:44:33;;;;;;;1.63;1.63;;;5.40;99.90;;;;;;5054162;28;20416;-72
2022/01/05 10:47:21;;;;;;;1.33;0.83;;;5.20;99.90;;;;;;5054683;28;20503;-72
2022/01/05 10:50:18;;;;;;;1.17;0.70;;;5.10;99.90;;;;;;5054011;28;20432;-71
2022/01/05 10:53:07;;;;;;;0.40;0.40;;;5.00;99.90;;;;;;5054553;28;20443;-72
2022/01/05 10:55:54;;;;;;;1.43;0.93;;;4.90;99.90;;;;;;5053902;28;20879;-72
2022/01/05 10:58:45;;;;;;;0.40;0.40;;;4.90;99.90;;;;;;5054706;28;20833;-72
2022/01/05 11:01:33;;;;;;;2.20;0.93;;;4.80;99.90;;;;;;5054251;28;20473;-71
2022/01/05 11:04:23;;;;;;;0.50;0.50;;;4.70;99.90;;;;;;5046564;28;20431;-72
2022/01/05 11:07:19;;;;;;;0.50;0.50;;;4.60;99.90;;;;;;5043663;28;20483;-72
2022/01/05 11:10:09;;;;;;;0.70;0.60;;;4.60;99.90;;;;;;5053721;28;20432;-72
2022/01/05 11:12:56;;;;;;;0.83;0.83;;;4.70;99.90;;;;;;5054238;28;20420;-71
2022/01/05 11:15:43;;;;;;;0.60;0.60;;;4.80;99.90;;;;;;5054969;28;20861;-72
2022/01/05 11:18:32;;;;;;;1.37;1.10;;;5.00;99.90;;;;;;5041201;28;20463;-73
2022/01/05 11:21:20;;;;;;;0.60;0.60;;;5.30;99.90;;;;;;5054000;28;20464;-72
2022/01/05 11:24:08;;;;;;;0.40;0.40;;;5.20;99.90;;;;;;5052480;28;20432;-72
2022/01/05 11:26:55;;;;;;;0.40;0.40;;;5.20;99.90;;;;;;5055035;28;20816;-72
2022/01/05 11:29:43;;;;;;;0.50;0.50;;;5.30;99.90;;;;;;5054207;28;20439;-72
2022/01/05 11:32:31;;;;;;;0.90;0.90;;;5.50;99.90;;;;;;5053491;28;20522;-71
2022/01/05 11:35:18;;;;;;;8.80;0.87;;;5.70;99.90;;;;;;5053348;28;20424;-71
2022/01/05 11:38:08;;;;;;;2.80;0.87;;;5.90;99.90;;;;;;5054471;28;20433;-72
2022/01/05 11:40:56;;;;;;;0.50;0.50;;;5.80;99.90;;;;;;5053033;28;20447;-71
2022/01/05 11:43:44;;;;;;;0.70;0.63;;;5.80;99.90;;;;;;5054156;28;20459;-71
2022/01/05 11:46:31;;;;;;;1.70;1.60;;;5.70;99.90;;;;;;5052704;28;20430;-71
2022/01/05 11:49:25;;;;;;;0.50;0.50;;;5.70;99.90;;;;;;5053539;28;20428;-72
2022/01/05 11:52:13;;;;;;;0.60;0.60;;;5.70;99.90;;;;;;5053443;28;20459;-72
2022/01/05 11:55:07;;;;;;;0.50;0.50;;;5.60;99.90;;;;;;5053000;28;20481;-72
2022/01/05 11:58:13;;;;;;;3.70;1.70;;;5.60;99.90;;;;;;5052785;28;20432;-72
2022/01/05 12:01:23;;;;;;;1.43;0.70;;;5.70;99.90;;;;;;5052432;28;20445;-72
2022/01/05 12:04:14;;;;;;;0.50;0.50;;;5.60;99.90;;;;;;5051478;28;20439;-71
2022/01/05 12:07:04;;;;;;;0.50;0.50;;;5.80;99.90;;;;;;5041776;28;20432;-71
2022/01/05 12:09:52;;;;;;;0.40;0.40;;;5.60;99.90;;;;;;5052299;28;20447;-71
2022/01/05 12:12:53;;;;;;;0.40;0.40;;;5.60;99.90;;;;;;5052297;28;20930;-72
2022/01/05 12:15:43;;;;;;;0.60;0.60;;;5.70;99.90;;;;;;5044877;28;20509;-72
2022/01/05 12:18:35;;;;;;;0.50;0.50;;;5.60;99.90;;;;;;5049739;28;20428;-73
2022/01/05 12:21:44;;;;;;;0.40;0.40;;;5.60;99.90;;;;;;5046594;28;20490;-72
2022/01/05 12:25:07;;;;;;;0.40;0.40;;;5.60;99.90;;;;;;5052473;28;20431;-72
2022/01/05 12:28:02;;;;;;;0.50;0.50;;;5.50;99.90;;;;;;5049506;28;20477;-74
2022/01/05 12:30:49;;;;;;;0.53;0.53;;;5.60;99.90;;;;;;5044000;28;20453;-73
2022/01/05 12:33:43;;;;;;;0.50;0.50;;;5.50;99.90;;;;;;5055297;28;20428;-73
2022/01/05 12:36:35;;;;;;;0.50;0.50;;;5.60;99.90;;;;;;5050324;28;20797;-72
2022/01/05 12:39:49;;;;;;;0.40;0.40;;;5.60;99.90;;;;;;5040129;28;20999;-72
2022/01/05 12:42:36;;;;;;;0.40;0.40;;;5.70;99.90;;;;;;5053589;28;20428;-72
2022/01/05 12:45:50;;;;;;;0.40;0.40;;;5.70;99.90;;;;;;5039080;28;20428;-71
2022/01/05 12:48:59;;;;;;;0.40;0.40;;;5.60;99.90;;;;;;5048679;28;20463;-71
2022/01/05 12:51:53;;;;;;;0.67;0.67;;;5.60;99.90;;;;;;5040404;28;20455;-71
2022/01/05 12:54:47;;;;;;;0.60;0.60;;;5.60;99.90;;;;;;5051128;28;20539;-73
2022/01/05 12:57:34;;;;;;;0.47;0.47;;;5.60;99.90;;;;;;5051846;28;20459;-71
2022/01/05 13:00:21;;;;;;;0.40;0.40;;;5.60;99.90;;;;;;5050529;28;20922;-72
2022/01/05 13:03:32;;;;;;;0.70;0.70;;;5.60;99.90;;;;;;5051777;28;20432;-71
2022/01/05 13:06:21;;;;;;;0.40;0.40;;;5.40;99.90;;;;;;5053348;28;20950;-72
2022/01/05 13:09:10;;;;;;;0.60;0.60;;;5.30;99.90;;;;;;5049611;28;20845;-70
2022/01/05 13:12:02;;;;;;;0.70;0.50;;;5.30;99.90;;;;;;5047958;28;20464;-72
2022/01/05 13:14:50;;;;;;;0.60;0.40;;;5.20;99.90;;;;;;5041190;28;20436;-71
2022/01/05 13:17:38;;;;;;;0.40;0.40;;;5.20;99.90;;;;;;5034717;28;20409;-72
2022/01/05 13:20:26;;;;;;;0.40;0.40;;;5.20;99.90;;;;;;5042581;28;20456;-73
2022/01/05 13:23:14;;;;;;;0.53;0.53;;;5.20;99.90;;;;;;5051881;28;20963;-72
2022/01/05 13:26:09;;;;;;;0.60;0.60;;;5.30;99.90;;;;;;5051445;28;20432;-70
2022/01/05 13:28:56;;;;;;;0.50;0.50;;;5.20;99.90;;;;;;5051557;28;20475;-71
2022/01/05 13:31:53;;;;;;;0.50;0.50;;;5.20;99.90;;;;;;5037551;28;20459;-71
2022/01/05 13:34:44;;;;;;;0.40;0.40;;;5.20;99.90;;;;;;5052485;28;20799;-71
2022/01/05 13:37:35;;;;;;;0.93;0.93;;;5.20;99.90;;;;;;5051621;28;20427;-71
2022/01/05 13:40:24;;;;;;;0.40;0.40;;;5.20;99.90;;;;;;5052805;28;20451;-71
2022/01/05 13:43:13;;;;;;;0.40;0.40;;;5.20;99.90;;;;;;5055078;28;20427;-71
2022/01/05 13:46:00;;;;;;;0.40;0.40;;;5.30;99.90;;;;;;5055900;28;20523;-71
2022/01/05 13:48:48;;;;;;;0.50;0.50;;;5.20;99.90;;;;;;5053974;28;20471;-71
2022/01/05 13:51:36;;;;;;;0.40;0.40;;;5.30;99.90;;;;;;5044823;28;20448;-71
2022/01/05 13:54:25;;;;;;;0.40;0.40;;;5.20;99.90;;;;;;5051041;28;20436;-72
2022/01/05 13:57:32;;;;;;;0.50;0.50;;;5.20;99.90;;;;;;5063073;28;20438;-72
2022/01/05 14:00:20;;;;;;;0.40;0.40;;;5.10;99.90;;;;;;5066499;28;20460;-72
2022/01/05 14:03:08;;;;;;;0.93;0.87;;;5.00;99.90;;;;;;5064215;28;20435;-72
2022/01/05 14:05:56;;;;;;;0.40;0.40;;;4.80;99.90;;;;;;5046836;28;20477;-71
2022/01/05 14:08:44;;;;;;;0.50;0.50;;;4.70;99.90;;;;;;5062749;28;20472;-71
2022/01/05 14:11:35;;;;;;;1.63;0.70;;;4.70;99.90;;;;;;5063646;28;20444;-71
2022/01/05 14:14:22;;;;;;;0.60;0.60;;;4.50;99.90;;;;;;5058167;28;20793;-71
2022/01/05 14:17:13;;;;;;;1.73;1.63;;;4.30;99.90;;;;;;5060621;28;20439;-71
2022/01/05 14:20:14;;;;;;;0.40;0.40;;;4.10;99.90;;;;;;5063899;28;20492;-71
2022/01/05 14:23:07;;;;;;;2.43;0.70;;;4.00;99.90;;;;;;5063595;28;20876;-69
2022/01/05 14:25:59;;;;;;;0.50;0.50;;;3.90;99.90;;;;;;5056495;28;20486;-70
2022/01/05 14:28:48;;;;;;;0.50;0.50;;;4.00;99.90;;;;;;5056841;28;20468;-71
2022/01/05 14:31:36;;;;;;;0.80;0.70;;;4.10;99.90;;;;;;5060237;28;20456;-70
2022/01/05 14:34:24;;;;;;;0.40;0.40;;;4.10;99.90;;;;;;5054858;28;21152;-68
2022/01/05 14:37:12;;;;;;;0.40;0.40;;;4.10;99.90;;;;;;5042686;28;20509;-71
2022/01/05 14:40:00;;;;;;;0.50;0.50;;;4.20;99.90;;;;;;5055257;28;20456;-70
2022/01/05 14:42:54;;;;;;;0.60;0.60;;;4.20;99.90;;;;;;5054673;28;20420;-70
2022/01/05 14:45:43;;;;;;;0.50;0.50;;;4.30;99.90;;;;;;5053824;28;20436;-72
2022/01/05 14:48:30;;;;;;;13.53;1.37;;;4.40;99.90;;;;;;5035093;28;20461;-70
2022/01/05 14:51:17;;;;;;;0.40;0.40;;;4.30;99.90;;;;;;5049053;28;20472;-71
2022/01/05 14:54:04;;;;;;;0.40;0.40;;;4.20;99.90;;;;;;5054356;28;20433;-71